Time;durP1;ratioP1;P1;durP2;ratioP2;P2;SDS_P1;SDS_P2;PMS_P1;PMS_P2;Temp;Humidity;BMP_temperature;BMP_pressure;BME280_temperature;BME280_humidity;BME280_pressure;Samples;Min_cycle;Max_cycle;Signal;HPM_P1;HPM_P2
2023/10/11 00:02:57;;;;;;;36.50;16.60;;;;;;;;;;8366057;28;20048;-95
2023/10/11 00:07:02;;;;;;;37.33;16.88;;;;;;;;;;8368581;28;20045;-94
2023/10/11 00:11:07;;;;;;;33.00;16.20;;;;;;;;;;8369521;28;20036;-93
2023/10/11 00:15:11;;;;;;;38.83;17.02;;;;;;;;;;8357753;28;20091;-94
2023/10/11 00:19:15;;;;;;;30.02;15.55;;;;;;;;;;8356633;28;20147;-95
2023/10/11 00:23:22;;;;;;;34.78;17.27;;;;;;;;;;8370529;28;20458;-93
2023/10/11 00:27:28;;;;;;;39.45;17.13;;;;;;;;;;8368714;28;20045;-94
2023/10/11 00:31:33;;;;;;;36.30;16.38;;;;;;;;;;8368015;28;20117;-93
2023/10/11 00:35:44;;;;;;;37.70;16.80;;;;;;;;;;8342351;28;20101;-93
2023/10/11 00:39:48;;;;;;;31.88;15.95;;;;;;;;;;8354943;28;20053;-94
2023/10/11 00:43:53;;;;;;;31.73;16.23;;;;;;;;;;8361270;28;20075;-94
2023/10/11 00:48:06;;;;;;;29.33;14.77;;;;;;;;;;8351222;28;20485;-92
2023/10/11 00:52:10;;;;;;;38.15;16.15;;;;;;;;;;8363601;28;20047;-95
2023/10/11 00:56:18;;;;;;;32.47;16.05;;;;;;;;;;8373886;28;20147;-93
2023/10/11 01:00:23;;;;;;;29.75;16.48;;;;;;;;;;8373142;28;20072;-93
2023/10/11 01:04:33;;;;;;;34.40;15.50;;;;;;;;;;8375604;28;20051;-91
2023/10/11 01:08:42;;;;;;;26.58;14.52;;;;;;;;;;8372777;28;20123;-93
2023/10/11 01:12:46;;;;;;;31.90;15.23;;;;;;;;;;8372988;28;20045;-93
2023/10/11 01:16:51;;;;;;;29.20;14.80;;;;;;;;;;8375549;28;20049;-95
2023/10/11 01:20:56;;;;;;;32.72;15.52;;;;;;;;;;8373601;28;20477;-91
2023/10/11 01:25:01;;;;;;;31.88;15.82;;;;;;;;;;8372234;28;20052;-94
2023/10/11 01:29:05;;;;;;;28.30;13.27;;;;;;;;;;8374265;28;20045;-93
2023/10/11 01:33:08;;;;;;;28.50;14.73;;;;;;;;;;8354986;28;20095;-96
2023/10/11 01:37:17;;;;;;;31.77;16.45;;;;;;;;;;8375412;28;20094;-93
2023/10/11 01:41:23;;;;;;;29.00;15.13;;;;;;;;;;8374131;28;20068;-94
2023/10/11 01:45:26;;;;;;;35.65;16.92;;;;;;;;;;8361403;28;20100;-93
2023/10/11 01:49:37;;;;;;;30.73;14.63;;;;;;;;;;8358776;28;20053;-92
2023/10/11 01:53:42;;;;;;;27.80;14.32;;;;;;;;;;8335415;28;20128;-94
2023/10/11 01:57:48;;;;;;;32.63;15.00;;;;;;;;;;8349828;28;20046;-91
2023/10/11 02:02:00;;;;;;;30.58;15.38;;;;;;;;;;8334537;28;20045;-94
2023/10/11 02:06:04;;;;;;;31.38;15.65;;;;;;;;;;8336455;28;20033;-96
2023/10/11 02:10:13;;;;;;;28.75;14.90;;;;;;;;;;8338098;28;20056;-93
2023/10/11 02:14:18;;;;;;;30.38;16.13;;;;;;;;;;8343324;28;20045;-94
2023/10/11 02:18:22;;;;;;;35.53;14.80;;;;;;;;;;8320576;28;20049;-93
2023/10/11 02:22:27;;;;;;;57.72;39.45;;;;;;;;;;8371379;28;20561;-94
2023/10/11 02:26:34;;;;;;;49.03;31.67;;;;;;;;;;8361699;28;20045;-93
2023/10/11 02:30:42;;;;;;;72.63;35.55;;;;;;;;;;8375861;28;20438;-94
2023/10/11 02:34:58;;;;;;;39.47;23.13;;;;;;;;;;8341771;28;20056;-96
2023/10/11 02:39:05;;;;;;;36.13;21.45;;;;;;;;;;8342209;28;20041;-94
2023/10/11 02:43:09;;;;;;;38.15;21.20;;;;;;;;;;8329319;28;20475;-94
2023/10/11 02:47:13;;;;;;;43.83;23.73;;;;;;;;;;8309462;28;20048;-93
2023/10/11 02:51:24;;;;;;;39.08;22.52;;;;;;;;;;8365260;28;20049;-92
2023/10/11 02:55:27;;;;;;;44.88;22.83;;;;;;;;;;8354665;28;20038;-95
2023/10/11 02:59:33;;;;;;;42.75;26.33;;;;;;;;;;8334859;28;20095;-92
2023/10/11 03:03:38;;;;;;;37.80;19.88;;;;;;;;;;8359721;28;20108;-91
2023/10/11 03:07:41;;;;;;;43.60;18.17;;;;;;;;;;8358688;28;20043;-93
2023/10/11 03:11:45;;;;;;;43.30;21.98;;;;;;;;;;8357516;28;20042;-92
2023/10/11 03:15:54;;;;;;;49.75;23.65;;;;;;;;;;8362288;28;20061;-91
2023/10/11 03:19:57;;;;;;;50.17;23.13;;;;;;;;;;8348268;28;20098;-93
2023/10/11 03:24:04;;;;;;;41.95;22.98;;;;;;;;;;8362941;28;20052;-91
2023/10/11 03:28:13;;;;;;;53.92;24.67;;;;;;;;;;8328853;28;20098;-92
2023/10/11 03:32:18;;;;;;;54.08;24.67;;;;;;;;;;8368518;28;20065;-93
2023/10/11 03:36:28;;;;;;;54.42;24.77;;;;;;;;;;8372006;28;20056;-94
2023/10/11 03:40:41;;;;;;;56.17;24.65;;;;;;;;;;8362226;28;20047;-95
2023/10/11 03:44:47;;;;;;;54.00;24.42;;;;;;;;;;8350643;28;20045;-91
2023/10/11 03:53:39;;;;;;;56.67;25.17;;;;;;;;;;8343479;28;20080;-94
2023/10/11 03:57:43;;;;;;;55.03;25.20;;;;;;;;;;8335279;28;20055;-95
2023/10/11 04:01:51;;;;;;;64.85;25.25;;;;;;;;;;8324530;28;20061;-95
2023/10/11 04:05:58;;;;;;;58.25;24.73;;;;;;;;;;8331821;28;20052;-94
2023/10/11 04:10:09;;;;;;;62.20;25.02;;;;;;;;;;8326881;28;20076;-91
2023/10/11 04:14:23;;;;;;;53.20;25.27;;;;;;;;;;8309403;28;20053;-94
2023/10/11 04:18:37;;;;;;;71.15;28.65;;;;;;;;;;8290850;28;20133;-93
2023/10/11 04:22:49;;;;;;;73.13;28.05;;;;;;;;;;8343625;28;20049;-94
2023/10/11 04:27:16;;;;;;;;;;;;;;;;;;8317937;28;20041;-93
2023/10/11 04:31:28;;;;;;;54.75;24.35;;;;;;;;;;8296289;28;20012;-96
2023/10/11 04:35:37;;;;;;;64.35;26.83;;;;;;;;;;8328288;28;20046;-94
2023/10/11 04:39:49;;;;;;;65.95;27.63;;;;;;;;;;8334017;28;20041;-90
2023/10/11 04:44:04;;;;;;;64.90;28.30;;;;;;;;;;8329625;28;20049;-93
2023/10/11 04:48:07;;;;;;;74.43;30.73;;;;;;;;;;8340313;28;20122;-92
2023/10/11 04:52:13;;;;;;;69.03;29.30;;;;;;;;;;8370954;28;20048;-91
2023/10/11 05:00:44;;;;;;;73.90;30.30;;;;;;;;;;8374499;28;20041;-90
2023/10/11 05:04:47;;;;;;;77.05;33.20;;;;;;;;;;8374292;28;20424;-96
2023/10/11 05:08:54;;;;;;;82.25;31.05;;;;;;;;;;8369098;28;20049;-94
2023/10/11 05:13:05;;;;;;;102.20;54.78;;;;;;;;;;8342299;28;20091;-93
2023/10/11 05:21:38;;;;;;;71.03;35.35;;;;;;;;;;8374214;28;20049;-93
2023/10/11 05:30:12;;;;;;;87.93;44.80;;;;;;;;;;8370167;28;19993;-93
2023/10/11 05:51:39;;;;;;;60.78;26.77;;;;;;;;;;8379116;28;20060;-90
2023/10/11 05:55:43;;;;;;;59.35;26.17;;;;;;;;;;8369726;28;20073;-91
2023/10/11 05:59:51;;;;;;;55.30;27.30;;;;;;;;;;8377093;28;20461;-91
2023/10/11 06:03:56;;;;;;;42.70;22.73;;;;;;;;;;8381594;28;20482;-90
2023/10/11 06:08:03;;;;;;;48.08;23.67;;;;;;;;;;8362434;28;20477;-92
2023/10/11 06:12:22;;;;;;;38.47;21.30;;;;;;;;;;8365797;28;20525;-91
2023/10/11 06:16:26;;;;;;;35.78;19.92;;;;;;;;;;8381534;28;20094;-93
2023/10/11 06:20:38;;;;;;;37.55;20.20;;;;;;;;;;8371061;28;20045;-93
2023/10/11 06:24:44;;;;;;;30.42;18.50;;;;;;;;;;8380388;28;20049;-92
2023/10/11 06:29:06;;;;;;;30.88;18.55;;;;;;;;;;8378390;28;20041;-92
2023/10/11 06:33:21;;;;;;;26.20;17.33;;;;;;;;;;8364147;28;20069;-96
2023/10/11 06:37:26;;;;;;;27.88;16.50;;;;;;;;;;8379430;28;20073;-93
2023/10/11 06:41:50;;;;;;;24.67;15.52;;;;;;;;;;8356502;28;20048;-92
2023/10/11 06:45:53;;;;;;;23.17;14.38;;;;;;;;;;8365519;28;20041;-93
2023/10/11 06:54:32;;;;;;;25.70;14.90;;;;;;;;;;8377972;28;20040;-95
2023/10/11 06:58:44;;;;;;;19.83;12.70;;;;;;;;;;8361607;28;20087;-94
2023/10/11 07:02:47;;;;;;;;;;;;;;;;;;8371743;28;20072;-94
2023/10/11 07:06:50;;;;;;;19.40;12.50;;;;;;;;;;8370806;28;19925;-92
2023/10/11 07:11:16;;;;;;;21.50;12.68;;;;;;;;;;8372995;28;20062;-96
2023/10/11 07:15:20;;;;;;;19.42;12.05;;;;;;;;;;8378248;28;20045;-91
2023/10/11 07:19:24;;;;;;;26.27;10.43;;;;;;;;;;8375308;28;20373;-94
2023/10/11 07:23:45;;;;;;;17.85;10.40;;;;;;;;;;8374751;28;20049;-92
2023/10/11 07:28:01;;;;;;;16.58;10.38;;;;;;;;;;8374387;28;20045;-90
2023/10/11 07:32:09;;;;;;;13.30;9.70;;;;;;;;;;8354291;28;20053;-94
2023/10/11 07:36:12;;;;;;;15.02;9.77;;;;;;;;;;8365718;28;20427;-95
2023/10/11 07:40:21;;;;;;;14.48;9.35;;;;;;;;;;8351467;28;20045;-94
2023/10/11 07:44:27;;;;;;;16.10;8.98;;;;;;;;;;8378554;28;20563;-95
2023/10/11 07:48:32;;;;;;;13.52;8.45;;;;;;;;;;8365074;28;20091;-94
2023/10/11 07:52:35;;;;;;;14.57;9.23;;;;;;;;;;8354505;28;20049;-95
2023/10/11 07:56:38;;;;;;;12.65;8.45;;;;;;;;;;8351547;28;20082;-92
2023/10/11 08:00:43;;;;;;;14.70;8.60;;;;;;;;;;8370850;28;20471;-93
2023/10/11 08:04:48;;;;;;;16.08;8.35;;;;;;;;;;8371317;28;20045;-94
2023/10/11 08:08:55;;;;;;;12.93;7.90;;;;;;;;;;8372179;28;20044;-94
2023/10/11 08:12:59;;;;;;;12.20;7.63;;;;;;;;;;8368810;28;20124;-90
2023/10/11 08:17:10;;;;;;;11.77;7.00;;;;;;;;;;8367837;28;20071;-92
2023/10/11 08:21:13;;;;;;;;;;;;;;;;;;8367918;28;20048;-91
2023/10/11 08:25:16;;;;;;;11.75;7.68;;;;;;;;;;8373139;28;19943;-93
2023/10/11 08:29:27;;;;;;;11.10;6.85;;;;;;;;;;8372472;28;20397;-93
2023/10/11 08:33:32;;;;;;;14.98;7.93;;;;;;;;;;8371595;28;20114;-94
2023/10/11 08:37:35;;;;;;;11.38;7.05;;;;;;;;;;8370385;28;20214;-92
2023/10/11 08:41:43;;;;;;;11.23;6.72;;;;;;;;;;8369135;28;20127;-92
2023/10/11 08:45:49;;;;;;;14.00;7.15;;;;;;;;;;8357013;28;20048;-92
2023/10/11 08:49:55;;;;;;;9.20;6.25;;;;;;;;;;8364437;28;20065;-91
2023/10/11 08:54:00;;;;;;;13.18;6.28;;;;;;;;;;8363134;28;20485;-96
2023/10/11 08:58:04;;;;;;;11.05;6.82;;;;;;;;;;8360585;28;20073;-92
2023/10/11 09:02:08;;;;;;;12.77;6.32;;;;;;;;;;8366303;28;20127;-93
2023/10/11 09:06:22;;;;;;;11.77;6.47;;;;;;;;;;8366105;28;20139;-93
2023/10/11 09:10:27;;;;;;;12.88;6.57;;;;;;;;;;8366543;28;20106;-94
2023/10/11 09:14:30;;;;;;;14.98;5.68;;;;;;;;;;8362130;28;20045;-93
2023/10/11 09:18:34;;;;;;;10.25;6.05;;;;;;;;;;8371268;28;20037;-92
2023/10/11 09:22:47;;;;;;;11.05;6.10;;;;;;;;;;8362447;28;20080;-93
2023/10/11 09:27:12;;;;;;;9.95;5.80;;;;;;;;;;8357581;28;20056;-92
2023/10/11 09:31:20;;;;;;;11.95;5.72;;;;;;;;;;8366263;28;20400;-92
2023/10/11 09:35:27;;;;;;;10.93;6.15;;;;;;;;;;8366021;28;20041;-91
2023/10/11 09:39:32;;;;;;;10.48;5.60;;;;;;;;;;8354066;28;20055;-92
2023/10/11 09:43:40;;;;;;;9.38;5.32;;;;;;;;;;8366560;28;20053;-92
2023/10/11 09:47:45;;;;;;;13.32;6.07;;;;;;;;;;8364978;28;20063;-94
2023/10/11 09:51:49;;;;;;;10.82;5.40;;;;;;;;;;8342223;28;20050;-92
2023/10/11 09:56:02;;;;;;;12.32;5.68;;;;;;;;;;8364346;28;20055;-90
2023/10/11 10:00:16;;;;;;;10.00;5.32;;;;;;;;;;8347451;28;20075;-95
2023/10/11 10:04:20;;;;;;;12.02;5.63;;;;;;;;;;8366877;28;20044;-94
2023/10/11 10:08:28;;;;;;;9.40;4.65;;;;;;;;;;8366159;28;20116;-92
2023/10/11 10:12:40;;;;;;;9.35;4.78;;;;;;;;;;8355327;28;20069;-95
2023/10/11 10:17:10;;;;;;;11.18;5.20;;;;;;;;;;8369036;28;20049;-93
2023/10/11 10:21:17;;;;;;;15.82;5.68;;;;;;;;;;8362469;28;20076;-92
2023/10/11 10:25:21;;;;;;;10.02;4.82;;;;;;;;;;8367656;28;20486;-92
2023/10/11 10:29:59;;;;;;;11.15;4.78;;;;;;;;;;8366055;28;20139;-92
2023/10/11 10:34:29;;;;;;;10.70;5.07;;;;;;;;;;8364846;28;20057;-91
2023/10/11 10:39:33;;;;;;;13.43;5.13;;;;;;;;;;8343259;28;20056;-91
2023/10/11 10:43:31;;;;;;;9.13;5.22;;;;;;;;;;8358432;28;20500;-91
2023/10/11 10:47:37;;;;;;;10.32;4.72;;;;;;;;;;8349486;28;20488;-93
2023/10/11 10:51:47;;;;;;;9.65;4.50;;;;;;;;;;8365261;28;20043;-92
2023/10/11 10:55:49;;;;;;;10.20;5.40;;;;;;;;;;8363989;28;20128;-91
2023/10/11 10:59:54;;;;;;;10.18;4.97;;;;;;;;;;8361007;28;20040;-92
2023/10/11 11:04:06;;;;;;;13.77;5.45;;;;;;;;;;8363738;28;20071;-92
2023/10/11 11:08:15;;;;;;;8.70;4.68;;;;;;;;;;8358075;28;20390;-90
2023/10/11 11:12:18;;;;;;;9.30;5.57;;;;;;;;;;8360511;28;20044;-93
2023/10/11 11:16:30;;;;;;;10.73;5.43;;;;;;;;;;8360842;28;20072;-92
2023/10/11 11:20:40;;;;;;;10.95;5.13;;;;;;;;;;8361120;28;20053;-92
2023/10/11 11:24:52;;;;;;;8.27;4.85;;;;;;;;;;8362298;28;20044;-92
2023/10/11 11:29:08;;;;;;;10.82;5.68;;;;;;;;;;8351196;28;20481;-92
2023/10/11 11:33:28;;;;;;;11.90;4.93;;;;;;;;;;8346051;28;20485;-91
2023/10/11 11:37:34;;;;;;;12.70;4.95;;;;;;;;;;8357834;28;20496;-92
2023/10/11 11:41:39;;;;;;;8.95;5.05;;;;;;;;;;8359594;28;20140;-91
2023/10/11 11:45:42;;;;;;;11.00;5.60;;;;;;;;;;8360251;28;20045;-90
2023/10/11 11:49:45;;;;;;;9.07;4.60;;;;;;;;;;8361688;28;20063;-95
2023/10/11 11:53:49;;;;;;;11.18;5.45;;;;;;;;;;8361447;28;20547;-90
2023/10/11 11:57:53;;;;;;;8.93;4.68;;;;;;;;;;8356999;28;20128;-91
2023/10/11 12:01:59;;;;;;;12.23;4.78;;;;;;;;;;8360822;28;20053;-91
2023/10/11 12:06:02;;;;;;;10.68;5.25;;;;;;;;;;8336700;28;20046;-95
2023/10/11 12:10:23;;;;;;;8.88;4.82;;;;;;;;;;8353755;28;20400;-92
2023/10/11 12:14:26;;;;;;;14.45;5.68;;;;;;;;;;8353721;28;20545;-94
2023/10/11 12:18:33;;;;;;;8.45;4.85;;;;;;;;;;8353333;28;20128;-92
2023/10/11 12:22:36;;;;;;;11.05;5.10;;;;;;;;;;8355596;28;20045;-93
2023/10/11 12:26:42;;;;;;;13.48;4.80;;;;;;;;;;8368347;28;20051;-92
2023/10/11 12:30:48;;;;;;;10.35;5.40;;;;;;;;;;8369238;28;20572;-90
2023/10/11 12:34:52;;;;;;;11.30;4.65;;;;;;;;;;8369709;28;20049;-92
2023/10/11 12:38:55;;;;;;;14.32;5.65;;;;;;;;;;8359323;28;20049;-90
2023/10/11 12:43:02;;;;;;;12.45;5.40;;;;;;;;;;8345363;28;20509;-94
2023/10/11 12:47:10;;;;;;;12.23;4.57;;;;;;;;;;8350122;28;20117;-92
2023/10/11 12:51:13;;;;;;;11.43;4.85;;;;;;;;;;8376547;28;20084;-92
2023/10/11 12:55:18;;;;;;;10.57;4.45;;;;;;;;;;8366389;28;20496;-94
2023/10/11 12:59:25;;;;;;;10.73;5.05;;;;;;;;;;8366429;28;20049;-93
2023/10/11 13:03:30;;;;;;;11.93;5.18;;;;;;;;;;8352756;28;20107;-93
2023/10/11 13:07:33;;;;;;;11.30;5.22;;;;;;;;;;8365131;28;20072;-92
2023/10/11 13:11:35;;;;;;;10.85;4.72;;;;;;;;;;8364948;28;20497;-93
2023/10/11 13:15:41;;;;;;;13.57;5.30;;;;;;;;;;8365335;28;20045;-94
2023/10/11 13:19:45;;;;;;;11.30;4.90;;;;;;;;;;8374489;28;20514;-91
2023/10/11 13:23:48;;;;;;;10.90;5.00;;;;;;;;;;8364105;28;20052;-91
2023/10/11 13:27:54;;;;;;;9.05;4.53;;;;;;;;;;8345259;28;20040;-93
2023/10/11 13:31:59;;;;;;;9.73;4.95;;;;;;;;;;8354873;28;20067;-93
2023/10/11 13:36:03;;;;;;;10.77;4.93;;;;;;;;;;8368171;28;20541;-91
2023/10/11 13:40:09;;;;;;;11.70;5.03;;;;;;;;;;8354725;28;20041;-93
2023/10/11 13:44:12;;;;;;;10.98;4.85;;;;;;;;;;8370080;28;20405;-93
2023/10/11 13:48:17;;;;;;;11.00;4.90;;;;;;;;;;8364809;28;20513;-93
2023/10/11 13:52:20;;;;;;;13.93;4.78;;;;;;;;;;8357598;28;20091;-94
2023/10/11 13:56:31;;;;;;;12.07;4.82;;;;;;;;;;8353977;28;20049;-91
2023/10/11 14:05:13;;;;;;;15.55;5.53;;;;;;;;;;8342508;28;20056;-92
2023/10/11 14:09:17;;;;;;;11.45;5.25;;;;;;;;;;8365676;28;20060;-94
2023/10/11 14:13:24;;;;;;;10.85;4.63;;;;;;;;;;8360712;28;20136;-92
2023/10/11 14:17:30;;;;;;;11.45;4.63;;;;;;;;;;8346028;28;20063;-93
2023/10/11 14:21:36;;;;;;;9.20;4.90;;;;;;;;;;8344992;28;20453;-91
2023/10/11 14:25:41;;;;;;;12.60;4.75;;;;;;;;;;8361854;28;20041;-92
2023/10/11 14:29:44;;;;;;;9.45;4.30;;;;;;;;;;8362446;28;20064;-92
2023/10/11 14:33:48;;;;;;;13.20;4.90;;;;;;;;;;8349787;28;20048;-91
2023/10/11 14:37:53;;;;;;;8.45;5.03;;;;;;;;;;8351477;28;20052;-92
2023/10/11 14:41:58;;;;;;;11.82;5.15;;;;;;;;;;8363425;28;20072;-92
2023/10/11 14:46:12;;;;;;;11.55;4.80;;;;;;;;;;8358619;28;20052;-92
2023/10/11 14:50:22;;;;;;;14.73;4.40;;;;;;;;;;8362216;28;20483;-92
2023/10/11 14:54:32;;;;;;;13.05;4.60;;;;;;;;;;8363114;28;20098;-91
2023/10/11 14:58:35;;;;;;;10.38;4.35;;;;;;;;;;8362006;28;20120;-92
2023/10/11 15:02:38;;;;;;;9.35;4.28;;;;;;;;;;8363308;28;20132;-93
2023/10/11 15:06:45;;;;;;;11.00;4.65;;;;;;;;;;8369385;28;20053;-93
2023/10/11 15:10:49;;;;;;;11.00;4.90;;;;;;;;;;8348434;28;20680;-92
2023/10/11 15:14:52;;;;;;;13.73;5.20;;;;;;;;;;8361498;28;20123;-91
2023/10/11 15:18:55;;;;;;;11.52;4.75;;;;;;;;;;8345301;28;20052;-94
2023/10/11 15:23:00;;;;;;;14.65;4.90;;;;;;;;;;8350332;28;20041;-92
2023/10/11 15:27:07;;;;;;;10.30;4.38;;;;;;;;;;8363429;28;20562;-93
2023/10/11 15:31:10;;;;;;;9.10;4.25;;;;;;;;;;8332056;28;20653;-94
2023/10/11 15:35:14;;;;;;;10.00;4.40;;;;;;;;;;8362802;28;20048;-93
2023/10/11 15:39:17;;;;;;;12.15;4.82;;;;;;;;;;8344000;28;20067;-92
2023/10/11 15:43:22;;;;;;;11.00;4.65;;;;;;;;;;8360070;28;20045;-92
2023/10/11 15:47:25;;;;;;;14.20;4.57;;;;;;;;;;8359717;28;20436;-93
2023/10/11 15:51:29;;;;;;;10.95;4.80;;;;;;;;;;8358365;28;20102;-92
2023/10/11 15:55:40;;;;;;;12.57;4.43;;;;;;;;;;8341708;28;20103;-91
2023/10/11 15:59:48;;;;;;;11.95;4.53;;;;;;;;;;8355506;28;20045;-93
2023/10/11 16:03:52;;;;;;;14.05;4.20;;;;;;;;;;8341496;28;20083;-92
2023/10/11 16:07:57;;;;;;;11.93;4.82;;;;;;;;;;8359809;28;20443;-92
2023/10/11 16:12:02;;;;;;;11.65;4.82;;;;;;;;;;8357061;28;20091;-91
2023/10/11 16:16:08;;;;;;;9.90;4.38;;;;;;;;;;8347030;28;20053;-92
2023/10/11 16:20:12;;;;;;;12.65;5.63;;;;;;;;;;8324472;28;20144;-95
2023/10/11 16:24:15;;;;;;;12.30;4.93;;;;;;;;;;8366340;28;20140;-92
2023/10/11 16:28:19;;;;;;;13.23;5.07;;;;;;;;;;8343779;28;20468;-91
2023/10/11 16:32:25;;;;;;;13.63;5.10;;;;;;;;;;8364837;28;20052;-92
2023/10/11 16:36:29;;;;;;;12.15;4.70;;;;;;;;;;8360998;28;20067;-94
2023/10/11 16:40:40;;;;;;;12.82;5.15;;;;;;;;;;8339966;28;20101;-92
2023/10/11 16:44:46;;;;;;;13.50;5.45;;;;;;;;;;8364789;28;20053;-92
2023/10/11 16:48:58;;;;;;;10.20;4.70;;;;;;;;;;8368602;28;20060;-94
2023/10/11 16:53:04;;;;;;;10.25;4.47;;;;;;;;;;8363494;28;20053;-92
2023/10/11 16:57:09;;;;;;;10.65;5.03;;;;;;;;;;8368988;28;20049;-94
2023/10/11 17:01:15;;;;;;;17.40;4.90;;;;;;;;;;8369737;28;21509;-91
2023/10/11 17:05:21;;;;;;;10.48;4.75;;;;;;;;;;8378208;28;20514;-93
2023/10/11 17:09:25;;;;;;;13.98;5.22;;;;;;;;;;8372973;28;20049;-93
2023/10/11 17:13:30;;;;;;;12.50;4.75;;;;;;;;;;8369057;28;20049;-92
2023/10/11 17:17:35;;;;;;;15.50;5.70;;;;;;;;;;8351123;28;20473;-92
2023/10/11 17:21:43;;;;;;;31.50;16.75;;;;;;;;;;8366276;28;20072;-92
2023/10/11 17:25:52;;;;;;;13.55;7.70;;;;;;;;;;8366242;28;20120;-93
2023/10/11 17:29:56;;;;;;;12.25;5.45;;;;;;;;;;8363447;28;20068;-93
2023/10/11 17:34:00;;;;;;;15.30;5.32;;;;;;;;;;8355833;28;20045;-94
2023/10/11 17:38:06;;;;;;;10.88;5.40;;;;;;;;;;8358276;28;20044;-92
2023/10/11 17:42:12;;;;;;;14.50;5.00;;;;;;;;;;8359486;28;20120;-94
2023/10/11 17:46:16;;;;;;;12.38;5.32;;;;;;;;;;8359906;28;20049;-92
2023/10/11 17:50:23;;;;;;;13.10;5.40;;;;;;;;;;8363369;28;20083;-93
2023/10/11 17:54:38;;;;;;;11.48;4.97;;;;;;;;;;8357256;28;20821;-93
2023/10/11 18:03:34;;;;;;;13.52;5.85;;;;;;;;;;8357758;28;20043;-94
2023/10/11 18:08:02;;;;;;;12.52;5.22;;;;;;;;;;8352237;28;20049;-94
2023/10/11 18:12:22;;;;;;;13.80;5.63;;;;;;;;;;8363673;28;20067;-90
2023/10/11 18:16:38;;;;;;;13.20;6.07;;;;;;;;;;8351322;28;20041;-92
2023/10/11 18:21:06;;;;;;;10.82;5.38;;;;;;;;;;8348725;28;20051;-94
2023/10/11 18:25:21;;;;;;;19.05;5.85;;;;;;;;;;8361876;28;20087;-93
2023/10/11 18:29:33;;;;;;;14.10;5.67;;;;;;;;;;8356486;28;20052;-92
2023/10/11 18:33:44;;;;;;;10.82;5.15;;;;;;;;;;8323757;28;20053;-93
2023/10/11 18:38:20;;;;;;;12.43;5.88;;;;;;;;;;8319110;28;20684;-93
2023/10/11 18:42:45;;;;;;;16.83;5.57;;;;;;;;;;8348869;28;20063;-92
2023/10/11 18:46:55;;;;;;;;;;;;;;;;;;8328950;28;20050;-94
2023/10/11 18:51:21;;;;;;;11.65;5.13;;;;;;;;;;8327917;28;20320;-93
2023/10/11 18:55:54;;;;;;;11.60;5.70;;;;;;;;;;8351437;28;20052;-94
2023/10/11 19:00:02;;;;;;;12.07;5.45;;;;;;;;;;8351600;28;20136;-93
2023/10/11 19:04:18;;;;;;;8.60;5.10;;;;;;;;;;8331643;28;20465;-92
2023/10/11 19:08:38;;;;;;;12.18;5.90;;;;;;;;;;8321913;28;20057;-91
2023/10/11 19:13:00;;;;;;;;;;;;;;;;;;;;;
2023/10/11 19:17:29;;;;;;;15.93;5.93;;;;;;;;;;8348008;28;20111;-90
2023/10/11 19:21:48;;;;;;;15.30;5.97;;;;;;;;;;8359456;28;20041;-92
2023/10/11 19:25:57;;;;;;;14.35;6.45;;;;;;;;;;8349040;28;20052;-92
2023/10/11 19:30:04;;;;;;;11.43;5.38;;;;;;;;;;8341963;28;20080;-91
2023/10/11 19:34:12;;;;;;;12.27;6.43;;;;;;;;;;8351062;28;20045;-92
2023/10/11 19:38:22;;;;;;;12.68;6.03;;;;;;;;;;8359304;28;20049;-93
2023/10/11 19:42:26;;;;;;;13.00;5.50;;;;;;;;;;8359279;28;20056;-91
2023/10/11 19:46:57;;;;;;;15.32;5.72;;;;;;;;;;8362485;28;20456;-93
2023/10/11 19:51:07;;;;;;;15.60;5.72;;;;;;;;;;8362873;28;20413;-93
2023/10/11 19:55:17;;;;;;;16.13;5.78;;;;;;;;;;8345130;28;20507;-93
2023/10/11 19:59:23;;;;;;;11.50;5.78;;;;;;;;;;8358761;28;20048;-93
2023/10/11 20:03:33;;;;;;;17.15;5.85;;;;;;;;;;8323049;28;20057;-94
2023/10/11 20:07:40;;;;;;;17.33;6.57;;;;;;;;;;8361739;28;20152;-92
2023/10/11 20:11:48;;;;;;;13.77;5.82;;;;;;;;;;8357871;28;20044;-92
2023/10/11 20:15:52;;;;;;;11.25;5.47;;;;;;;;;;8333253;28;20131;-92
2023/10/11 20:19:55;;;;;;;13.40;5.88;;;;;;;;;;8358563;28;20037;-91
2023/10/11 20:24:00;;;;;;;15.63;5.63;;;;;;;;;;8359549;28;20048;-92
2023/10/11 20:28:09;;;;;;;14.80;5.93;;;;;;;;;;8346631;28;20143;-90
2023/10/11 20:32:13;;;;;;;18.25;6.53;;;;;;;;;;8359763;28;20098;-93
2023/10/11 20:36:18;;;;;;;14.27;5.78;;;;;;;;;;8340254;28;20116;-90
2023/10/11 20:40:27;;;;;;;13.93;6.63;;;;;;;;;;8348181;28;20584;-93
2023/10/11 20:44:32;;;;;;;12.55;6.22;;;;;;;;;;8361480;28;20053;-93
2023/10/11 20:48:36;;;;;;;15.82;6.30;;;;;;;;;;8338080;28;20073;-93
2023/10/11 20:52:39;;;;;;;17.20;6.25;;;;;;;;;;8332339;28;20140;-92
2023/10/11 20:56:46;;;;;;;18.13;6.07;;;;;;;;;;8343108;28;20045;-92
2023/10/11 21:00:51;;;;;;;13.27;6.80;;;;;;;;;;8317006;28;20524;-92
2023/10/11 21:04:54;;;;;;;14.10;6.00;;;;;;;;;;8337024;28;20041;-92
2023/10/11 21:08:59;;;;;;;13.90;5.75;;;;;;;;;;8331404;28;20493;-91
2023/10/11 21:13:06;;;;;;;10.80;5.50;;;;;;;;;;8322767;28;20037;-92
2023/10/11 21:17:10;;;;;;;17.65;5.50;;;;;;;;;;8335757;28;20049;-91
2023/10/11 21:21:17;;;;;;;14.88;5.70;;;;;;;;;;8342205;28;20467;-92
2023/10/11 21:25:25;;;;;;;14.07;6.22;;;;;;;;;;8327430;28;20057;-90
2023/10/11 21:29:35;;;;;;;13.52;6.00;;;;;;;;;;8335216;28;20053;-93
2023/10/11 21:33:40;;;;;;;14.50;5.85;;;;;;;;;;8348071;28;20042;-92
2023/10/11 21:37:43;;;;;;;14.75;6.50;;;;;;;;;;8328506;28;20120;-92
2023/10/11 21:41:47;;;;;;;15.25;6.30;;;;;;;;;;8325306;28;20459;-92
2023/10/11 21:45:50;;;;;;;15.48;5.75;;;;;;;;;;8344185;28;20044;-93
2023/10/11 21:49:55;;;;;;;12.63;6.10;;;;;;;;;;8350686;28;20065;-91
2023/10/11 21:53:58;;;;;;;15.05;5.85;;;;;;;;;;8325591;28;20125;-92
2023/10/11 21:58:03;;;;;;;13.73;5.88;;;;;;;;;;8317633;28;20068;-91
2023/10/11 22:02:06;;;;;;;10.95;6.15;;;;;;;;;;8347809;28;20124;-93
2023/10/11 22:06:17;;;;;;;13.82;6.25;;;;;;;;;;8335021;28;20045;-93
2023/10/11 22:10:20;;;;;;;15.85;5.57;;;;;;;;;;8327762;28;20252;-92
2023/10/11 22:14:26;;;;;;;11.10;6.13;;;;;;;;;;8334359;28;20440;-91
2023/10/11 22:18:30;;;;;;;16.60;5.97;;;;;;;;;;8330082;28;20502;-92
2023/10/11 22:22:35;;;;;;;11.77;6.95;;;;;;;;;;8333268;28;20401;-92
2023/10/11 22:26:43;;;;;;;17.48;6.97;;;;;;;;;;8334251;28;20053;-93
2023/10/11 22:30:55;;;;;;;16.30;5.93;;;;;;;;;;8333502;28;20064;-92
2023/10/11 22:34:58;;;;;;;14.68;6.50;;;;;;;;;;8333171;28;20482;-92
2023/10/11 22:39:04;;;;;;;14.95;6.13;;;;;;;;;;8344426;28;20041;-92
2023/10/11 22:43:07;;;;;;;20.67;6.88;;;;;;;;;;8315392;28;20128;-92
2023/10/11 22:47:10;;;;;;;13.02;6.43;;;;;;;;;;8333448;28;20107;-92
2023/10/11 22:51:16;;;;;;;13.10;6.05;;;;;;;;;;8366070;28;20048;-92
2023/10/11 22:55:21;;;;;;;11.77;6.28;;;;;;;;;;8366036;28;20119;-91
2023/10/11 22:59:24;;;;;;;13.10;6.25;;;;;;;;;;8365357;28;20055;-92
2023/10/11 23:03:29;;;;;;;11.85;6.57;;;;;;;;;;8346147;28;20064;-92
2023/10/11 23:07:33;;;;;;;12.95;6.30;;;;;;;;;;8358792;28;20048;-92
2023/10/11 23:11:52;;;;;;;16.40;7.03;;;;;;;;;;8354350;28;20049;-92
2023/10/11 23:15:55;;;;;;;13.35;5.82;;;;;;;;;;8345245;28;20037;-93
2023/10/11 23:20:04;;;;;;;10.60;5.68;;;;;;;;;;8358192;28;20128;-92
2023/10/11 23:24:09;;;;;;;13.02;6.00;;;;;;;;;;8371581;28;20481;-91
2023/10/11 23:28:14;;;;;;;14.50;6.00;;;;;;;;;;8359034;28;20068;-93
2023/10/11 23:32:19;;;;;;;11.43;6.20;;;;;;;;;;8345018;28;20398;-92
2023/10/11 23:36:23;;;;;;;14.70;6.60;;;;;;;;;;8358659;28;20049;-92
2023/10/11 23:40:39;;;;;;;18.55;7.32;;;;;;;;;;8355454;28;20069;-92
2023/10/11 23:44:44;;;;;;;16.52;7.05;;;;;;;;;;8364795;28;20155;-93
2023/10/11 23:48:47;;;;;;;15.90;6.68;;;;;;;;;;8338431;28;20089;-92
2023/10/11 23:52:56;;;;;;;13.60;6.90;;;;;;;;;;8345067;28;20051;-92
2023/10/11 23:57:00;;;;;;;12.23;6.28;;;;;;;;;;8339800;28;20127;-93
